createdAt,value
2018-06-19T00:01:43.661Z,22.62
2018-06-19T00:03:28.687Z,22.57
2018-06-19T00:05:13.614Z,22.62
2018-06-19T00:06:58.591Z,22.66
2018-06-19T00:08:43.518Z,22.62
2018-06-19T00:10:28.443Z,22.53
2018-06-19T00:12:13.417Z,22.54
2018-06-19T00:13:58.390Z,22.59
2018-06-19T00:15:43.316Z,22.57
2018-06-19T00:17:28.339Z,22.55
2018-06-19T00:35:03.898Z,22.36
2018-06-19T00:36:48.821Z,22.36
2018-06-19T00:38:03.161Z,22.48
2018-06-19T00:39:48.135Z,22.45
2018-06-19T00:41:33.062Z,22.43
2018-06-19T00:43:35.465Z,22.44
2018-06-19T00:45:20.388Z,22.41
2018-06-19T00:47:05.313Z,22.36
2018-06-19T00:48:50.286Z,22.36
2018-06-19T00:50:35.258Z,22.41
2018-06-19T00:51:49.598Z,22.43
2018-06-19T00:53:34.571Z,22.45
2018-06-19T00:55:19.495Z,22.43
2018-06-19T00:57:04.422Z,22.39
2018-06-19T00:58:49.344Z,22.39
2018-06-19T01:00:34.269Z,22.35
2018-06-19T01:02:19.197Z,22.41
2018-06-19T01:04:08.166Z,22.39
2018-06-19T01:05:53.140Z,22.36
2018-06-19T01:07:38.066Z,22.43
2018-06-19T01:09:23.041Z,22.45
2018-06-19T01:11:07.966Z,22.43
2018-06-19T01:12:52.890Z,22.45
2018-06-19T01:14:37.816Z,22.41
2018-06-19T01:16:22.743Z,22.43
2018-06-19T01:18:07.724Z,22.36
2018-06-19T01:19:52.687Z,22.43
2018-06-19T01:22:13.667Z,22.38
2018-06-19T01:23:58.766Z,22.45
2018-06-19T01:25:43.865Z,22.38
2018-06-19T01:27:29.013Z,22.44
2018-06-19T01:29:14.312Z,22.44
2018-06-19T01:30:59.410Z,22.43
2018-06-19T01:32:44.509Z,22.43
2018-06-19T01:34:29.607Z,22.43
2018-06-19T01:36:14.705Z,22.39
2018-06-19T01:37:59.875Z,22.44
2018-06-19T01:39:44.938Z,22.35
2018-06-19T01:41:30.036Z,22.45
2018-06-19T01:43:15.182Z,22.38
2018-06-19T01:45:00.334Z,22.41
2018-06-19T01:46:45.427Z,22.47
2018-06-19T01:48:30.523Z,22.44
2018-06-19T01:53:30.276Z,22.41
2018-06-19T01:55:15.196Z,22.43
2018-06-19T01:57:00.120Z,22.41
2018-06-19T01:58:45.107Z,22.45
2018-06-19T02:00:29.965Z,22.39
2018-06-19T02:02:14.938Z,22.38
2018-06-19T02:03:59.914Z,22.43
2018-06-19T02:05:44.839Z,22.45
2018-06-19T02:07:29.762Z,22.36
2018-06-19T02:09:14.686Z,22.44
2018-06-19T02:10:59.610Z,22.35
2018-06-19T02:12:44.582Z,22.44
2018-06-19T02:14:29.506Z,22.36
2018-06-19T02:16:14.430Z,22.33
2018-06-19T02:17:59.354Z,22.50
2018-06-19T02:19:44.480Z,22.41
2018-06-19T02:21:29.452Z,22.47
2018-06-19T02:23:14.376Z,22.39
2018-06-19T02:24:59.301Z,22.55
2018-06-19T02:26:44.227Z,22.41
2018-06-19T02:28:29.241Z,22.43
2018-06-19T02:30:14.166Z,22.45
2018-06-19T02:31:59.090Z,22.53
2018-06-19T02:33:44.019Z,22.44
2018-06-19T02:35:28.982Z,22.44
2018-06-19T02:37:14.013Z,22.50
2018-06-19T02:38:58.932Z,22.45
2018-06-19T02:40:43.949Z,22.55
2018-06-19T02:42:28.873Z,22.45
2018-06-19T02:44:13.808Z,22.48
2018-06-19T02:45:58.771Z,22.50
2018-06-19T02:47:43.697Z,22.47
2018-06-19T02:49:28.621Z,22.48
2018-06-19T02:51:13.544Z,22.47
2018-06-19T02:52:58.469Z,22.50
2018-06-19T02:54:43.393Z,22.50
2018-06-19T02:56:28.567Z,22.48
2018-06-19T02:58:13.496Z,22.45
2018-06-19T02:59:58.461Z,22.48
2018-06-19T03:01:43.386Z,22.57
2018-06-19T03:03:28.361Z,22.53
2018-06-19T03:05:13.337Z,22.48
2018-06-19T03:06:58.261Z,22.47
2018-06-19T03:08:43.185Z,22.48
2018-06-19T03:10:28.113Z,22.48
2018-06-19T03:12:13.038Z,22.55
2018-06-19T03:13:58.015Z,22.53
2018-06-19T03:15:42.983Z,22.50
2018-06-19T03:17:27.956Z,22.51
2018-06-19T03:19:12.931Z,22.47
2018-06-19T03:20:57.908Z,22.51
2018-06-19T03:22:42.834Z,22.48
2018-06-19T03:24:27.759Z,22.50
2018-06-19T03:26:12.684Z,22.51
2018-06-19T03:27:57.608Z,22.59
2018-06-19T03:29:42.583Z,22.53
2018-06-19T03:31:27.510Z,22.54
2018-06-19T03:33:12.435Z,22.47
2018-06-19T03:34:57.409Z,22.50
2018-06-19T03:36:42.333Z,22.50
2018-06-19T03:38:27.308Z,22.48
2018-06-19T03:40:12.235Z,22.51
2018-06-19T03:41:57.160Z,22.51
2018-06-19T03:43:42.085Z,22.50
2018-06-19T03:45:27.009Z,22.48
2018-06-19T03:47:11.982Z,22.47
2018-06-19T03:48:56.957Z,22.51
2018-06-19T03:50:41.884Z,22.47
2018-06-19T03:52:26.808Z,22.47
2018-06-19T03:54:11.783Z,22.48
2018-06-19T03:55:56.710Z,22.47
2018-06-19T03:57:41.684Z,22.50
2018-06-19T03:59:26.609Z,22.51
2018-06-19T04:01:11.571Z,22.55
2018-06-19T04:03:01.512Z,22.50
2018-06-19T04:04:46.436Z,22.47
2018-06-19T04:06:31.361Z,22.53
2018-06-19T04:08:16.335Z,22.50
2018-06-19T04:10:01.261Z,22.54
2018-06-19T04:11:46.234Z,22.48
2018-06-19T04:13:31.159Z,22.48
2018-06-19T04:15:16.083Z,22.48
2018-06-19T04:17:01.057Z,22.48
2018-06-19T04:18:45.982Z,22.59
2018-06-19T04:20:30.907Z,22.51
2018-06-19T04:22:15.832Z,22.51
2018-06-19T04:24:00.756Z,22.50
2018-06-19T04:25:45.681Z,22.50
2018-06-19T04:27:30.607Z,22.48
2018-06-19T04:29:15.582Z,22.51
2018-06-19T04:31:00.556Z,22.51
2018-06-19T04:32:45.483Z,22.55
2018-06-19T04:34:30.413Z,22.55
2018-06-19T04:36:15.382Z,22.59
2018-06-19T04:38:00.307Z,22.62
2018-06-19T04:39:45.232Z,22.51
2018-06-19T04:41:30.156Z,22.63
2018-06-19T04:43:15.080Z,22.60
2018-06-19T04:45:00.009Z,22.55
2018-06-19T04:46:44.980Z,22.59
2018-06-19T04:48:29.957Z,22.62
2018-06-19T04:50:14.881Z,22.62
2018-06-19T04:51:59.807Z,22.63
2018-06-19T04:53:44.731Z,22.55
2018-06-19T04:55:29.706Z,22.57
2018-06-19T04:57:14.635Z,22.57
2018-06-19T04:58:59.601Z,22.62
2018-06-19T05:00:44.526Z,22.62
2018-06-19T05:02:29.451Z,22.54
2018-06-19T05:04:14.377Z,22.63
2018-06-19T05:05:59.350Z,22.63
2018-06-19T05:07:44.274Z,22.57
2018-06-19T05:09:29.250Z,22.60
2018-06-19T05:11:14.177Z,22.57
2018-06-19T05:12:59.102Z,22.63
2018-06-19T05:14:44.077Z,22.62
2018-06-19T05:16:29.004Z,22.63
2018-06-19T05:18:13.930Z,22.60
2018-06-19T05:19:58.860Z,22.59
2018-06-19T05:21:43.779Z,22.54
2018-06-19T05:23:28.705Z,22.55
2018-06-19T05:25:13.679Z,22.63
2018-06-19T05:26:58.656Z,22.57
2018-06-19T05:28:43.583Z,22.59
2018-06-19T05:30:28.655Z,22.60
2018-06-19T05:32:13.634Z,22.62
2018-06-19T05:33:58.560Z,22.65
2018-06-19T05:35:43.585Z,22.60
2018-06-19T05:37:28.512Z,22.57
2018-06-19T05:39:13.437Z,22.66
2018-06-19T05:40:58.362Z,22.62
2018-06-19T05:42:43.286Z,22.62
2018-06-19T05:44:28.212Z,22.65
2018-06-19T05:46:13.188Z,22.59
2018-06-19T05:47:58.214Z,22.66
2018-06-19T05:49:43.189Z,22.66
2018-06-19T05:51:28.158Z,22.66
2018-06-19T05:53:13.082Z,22.62
2018-06-19T05:54:58.063Z,22.63
2018-06-19T05:56:43.024Z,22.57
2018-06-19T05:58:27.949Z,22.57
2018-06-19T06:00:12.901Z,22.63
2018-06-19T06:02:02.852Z,22.59
2018-06-19T06:03:47.776Z,22.60
2018-06-19T06:05:32.975Z,22.60
2018-06-19T06:07:17.828Z,22.60
2018-06-19T06:09:02.804Z,22.60
2018-06-19T06:10:47.732Z,22.65
2018-06-19T06:12:32.705Z,22.60
2018-06-19T06:14:17.632Z,22.62
2018-06-19T06:16:02.558Z,22.63
2018-06-19T06:17:47.482Z,22.54
2018-06-19T06:19:32.407Z,22.65
2018-06-19T06:21:17.332Z,22.65
2018-06-19T06:23:02.257Z,22.65
2018-06-19T06:24:47.332Z,22.60
2018-06-19T06:26:32.309Z,22.63
2018-06-19T06:28:17.232Z,22.63
2018-06-19T06:30:02.206Z,22.65
2018-06-19T06:31:47.131Z,22.59
2018-06-19T06:33:32.059Z,22.65
2018-06-19T06:35:16.981Z,22.60
2018-06-19T06:37:01.962Z,22.66
2018-06-19T06:38:46.830Z,22.63
2018-06-19T06:40:31.756Z,22.62
2018-06-19T06:42:16.882Z,22.60
2018-06-19T06:44:01.808Z,22.60
2018-06-19T06:45:46.782Z,22.60
2018-06-19T06:47:31.710Z,22.65
2018-06-19T06:49:16.635Z,22.75
2018-06-19T06:51:01.612Z,22.68
2018-06-19T06:52:46.576Z,22.72
2018-06-19T06:54:31.501Z,22.73
2018-06-19T06:56:16.428Z,22.72
2018-06-19T06:58:01.352Z,22.69
2018-06-19T06:59:46.282Z,22.68
2018-06-19T07:01:31.244Z,22.70
2018-06-19T07:03:16.369Z,22.68
2018-06-19T07:05:01.296Z,22.70
2018-06-19T07:06:46.220Z,22.69
2018-06-19T07:08:31.146Z,22.69
2018-06-19T07:10:16.130Z,22.70
2018-06-19T07:12:01.044Z,22.68
2018-06-19T07:13:45.969Z,22.65
2018-06-19T07:15:30.905Z,22.75
2018-06-19T07:17:15.819Z,22.65
2018-06-19T07:19:00.809Z,22.69
2018-06-19T07:20:45.670Z,22.66
2018-06-19T07:22:30.719Z,22.62
2018-06-19T07:24:15.570Z,22.62
2018-06-19T07:26:00.604Z,22.72
2018-06-19T07:27:45.570Z,22.69
2018-06-19T07:29:30.497Z,22.69
2018-06-19T07:31:15.423Z,22.65
2018-06-19T07:33:00.348Z,22.70
2018-06-19T07:34:45.273Z,22.69
2018-06-19T07:36:30.201Z,22.66
2018-06-19T07:38:15.179Z,22.69
2018-06-19T07:40:00.098Z,22.72
2018-06-19T07:41:45.043Z,22.72
2018-06-19T07:43:30.043Z,22.65
2018-06-19T07:45:14.971Z,22.68
2018-06-19T07:46:59.990Z,22.69
2018-06-19T07:48:44.957Z,22.65
2018-06-19T07:50:29.882Z,22.73
2018-06-19T07:52:14.810Z,22.70
2018-06-19T07:53:59.777Z,22.70
2018-06-19T07:55:44.700Z,22.69
2018-06-19T07:57:29.678Z,22.70
2018-06-19T07:59:14.604Z,22.69
2018-06-19T08:00:59.534Z,22.72
2018-06-19T08:02:44.589Z,22.72
2018-06-19T08:04:29.555Z,22.72
2018-06-19T08:06:14.512Z,22.72
2018-06-19T08:07:59.449Z,22.69
2018-06-19T08:09:44.461Z,22.70
2018-06-19T08:11:29.391Z,22.68
2018-06-19T08:13:14.366Z,22.72
2018-06-19T08:14:59.297Z,22.73
2018-06-19T08:16:44.219Z,22.70
2018-06-19T08:18:29.193Z,22.75
2018-06-19T08:20:14.171Z,22.72
2018-06-19T08:21:59.098Z,22.73
2018-06-19T08:23:44.073Z,22.78
2018-06-19T08:25:29.051Z,22.72
2018-06-19T08:27:13.978Z,22.75
2018-06-19T08:28:58.904Z,22.81
2018-06-19T08:30:43.829Z,22.75
2018-06-19T08:32:28.755Z,22.72
2018-06-19T08:34:13.683Z,22.76
2018-06-19T08:35:58.604Z,22.73
2018-06-19T08:37:43.532Z,22.75
2018-06-19T08:39:28.456Z,22.80
2018-06-19T08:41:13.383Z,22.80
2018-06-19T08:42:58.359Z,22.81
2018-06-19T08:44:43.338Z,22.84
2018-06-19T08:46:28.316Z,22.84
2018-06-19T08:48:13.244Z,22.88
2018-06-19T08:49:58.170Z,22.88
2018-06-19T08:51:43.097Z,22.81
2018-06-19T08:53:28.023Z,22.85
2018-06-19T08:55:13.011Z,22.85
2018-06-19T08:56:57.875Z,22.87
2018-06-19T08:58:42.802Z,22.87
2018-06-19T09:00:27.728Z,22.87
2018-06-19T09:02:12.654Z,22.85
2018-06-19T09:03:57.673Z,22.90
2018-06-19T09:05:42.650Z,22.90
2018-06-19T09:07:27.578Z,22.88
2018-06-19T09:09:12.551Z,22.98
2018-06-19T09:10:57.486Z,22.90
2018-06-19T09:12:42.404Z,22.91
2018-06-19T09:14:27.329Z,22.87
2018-06-19T09:16:12.257Z,22.96
2018-06-19T09:17:57.181Z,22.94
2018-06-19T09:19:42.108Z,22.85
2018-06-19T09:21:27.085Z,22.94
2018-06-19T09:23:12.064Z,22.96
2018-06-19T09:24:56.989Z,22.96
2018-06-19T09:26:41.967Z,22.91
2018-06-19T09:28:26.896Z,22.91
2018-06-19T09:30:11.863Z,22.94
2018-06-19T09:31:56.792Z,22.91
2018-06-19T09:33:41.716Z,22.91
2018-06-19T09:35:26.644Z,22.91
2018-06-19T09:37:11.568Z,22.91
2018-06-19T09:38:56.545Z,22.94
2018-06-19T09:40:41.472Z,22.81
2018-06-19T09:42:26.448Z,22.96
2018-06-19T09:44:11.373Z,22.96
2018-06-19T09:45:56.353Z,22.98
2018-06-19T09:47:41.278Z,22.96
2018-06-19T09:49:26.207Z,22.94
2018-06-19T09:51:11.174Z,22.94
2018-06-19T09:52:56.101Z,22.99
2018-06-19T09:54:41.031Z,22.99
2018-06-19T09:56:25.954Z,23.06
2018-06-19T09:58:10.929Z,23.06
2018-06-19T09:59:55.907Z,23.03
2018-06-19T10:01:45.891Z,23.06
2018-06-19T10:03:30.864Z,22.99
2018-06-19T10:05:15.840Z,23.15
2018-06-19T10:07:00.968Z,23.06
2018-06-19T10:08:45.897Z,23.06
2018-06-19T10:10:30.865Z,23.05
2018-06-19T10:12:15.826Z,23.08
2018-06-19T10:14:00.866Z,23.05
2018-06-19T10:15:45.845Z,22.99
2018-06-19T10:17:30.825Z,22.98
2018-06-19T10:19:15.753Z,23.06
2018-06-19T10:21:00.729Z,23.05
2018-06-19T10:22:45.658Z,23.08
2018-06-19T10:24:30.633Z,23.12
2018-06-19T10:26:15.562Z,23.12
2018-06-19T10:28:00.489Z,23.15
2018-06-19T10:29:45.417Z,23.13
2018-06-19T10:31:30.434Z,23.18
2018-06-19T10:33:15.362Z,23.24
2018-06-19T10:35:00.378Z,23.15
2018-06-19T10:36:45.266Z,23.15
2018-06-19T10:38:30.241Z,23.18
2018-06-19T10:40:15.191Z,23.32
2018-06-19T10:42:00.101Z,23.40
2018-06-19T10:43:45.027Z,23.40
2018-06-19T10:45:29.952Z,23.51
2018-06-19T10:47:14.929Z,23.46
2018-06-19T10:48:59.859Z,23.50
2018-06-19T10:50:44.831Z,23.48
2018-06-19T10:52:29.760Z,23.46
2018-06-19T10:54:14.685Z,23.56
2018-06-19T10:55:59.611Z,23.51
2018-06-19T10:57:44.586Z,23.50
2018-06-19T10:59:29.516Z,23.54
2018-06-19T11:01:14.441Z,23.56
2018-06-19T11:02:59.365Z,23.59
2018-06-19T11:04:44.291Z,23.58
2018-06-19T11:06:29.218Z,23.55
2018-06-19T11:08:14.165Z,23.59
2018-06-19T11:09:59.219Z,23.55
2018-06-19T11:11:44.146Z,23.51
2018-06-19T11:13:29.128Z,23.56
2018-06-19T11:15:14.093Z,23.55
2018-06-19T11:16:59.068Z,23.51
2018-06-19T11:18:43.993Z,23.56
2018-06-19T11:20:28.920Z,23.59
2018-06-19T11:22:13.845Z,23.61
2018-06-19T11:23:58.819Z,23.56
2018-06-19T11:25:43.775Z,23.62
2018-06-19T11:27:28.674Z,23.61
2018-06-19T11:29:13.651Z,23.66
2018-06-19T11:32:09.309Z,23.69
2018-06-19T11:33:54.285Z,23.76
2018-06-19T11:35:39.212Z,23.80
2018-06-19T11:37:24.138Z,23.83
2018-06-19T11:39:09.066Z,23.87
2018-06-19T11:40:53.991Z,23.83
2018-06-19T11:42:38.918Z,23.88
2018-06-19T11:44:23.894Z,23.88
2018-06-19T11:46:08.820Z,23.87
2018-06-19T11:47:53.747Z,23.77
2018-06-19T11:49:38.923Z,23.80
2018-06-19T11:51:23.909Z,23.73
2018-06-19T11:53:08.778Z,23.77
2018-06-19T11:54:53.755Z,23.74
2018-06-19T11:56:38.683Z,23.69
2018-06-19T11:58:23.613Z,23.81
2018-06-19T12:00:08.541Z,23.77
2018-06-19T12:01:53.539Z,23.68
2018-06-19T12:03:38.397Z,23.76
2018-06-19T12:05:23.374Z,23.76
2018-06-19T12:07:08.304Z,23.73
2018-06-19T12:08:53.282Z,23.71
2018-06-19T12:10:38.203Z,23.66
2018-06-19T12:12:23.130Z,23.80
2018-06-19T12:14:08.058Z,23.76
2018-06-19T12:15:53.033Z,23.73
2018-06-19T12:17:37.960Z,23.81
2018-06-19T12:19:22.887Z,23.71
2018-06-19T12:21:07.813Z,23.71
2018-06-19T12:22:52.893Z,23.71
2018-06-19T12:24:37.867Z,23.78
2018-06-19T12:26:22.796Z,23.69
2018-06-19T12:28:07.772Z,23.80
2018-06-19T12:29:52.850Z,23.77
2018-06-19T12:31:37.776Z,23.76
2018-06-19T12:33:22.703Z,23.76
2018-06-19T12:35:07.678Z,23.73
2018-06-19T12:36:52.657Z,23.78
2018-06-19T12:38:37.582Z,23.76
2018-06-19T12:40:22.507Z,23.78
2018-06-19T12:42:07.483Z,23.73
2018-06-19T12:43:52.510Z,23.74
2018-06-19T12:45:37.486Z,23.78
2018-06-19T12:47:22.415Z,23.81
2018-06-19T12:49:07.342Z,23.83
2018-06-19T12:50:52.318Z,23.77
2018-06-19T12:52:37.243Z,23.78
2018-06-19T12:54:22.213Z,23.71
2018-06-19T12:56:07.138Z,23.76
2018-06-19T12:57:52.066Z,23.74
2018-06-19T12:59:37.042Z,23.78
2018-06-19T13:01:21.970Z,23.81
2018-06-19T13:03:06.949Z,23.81
2018-06-19T13:04:51.873Z,23.77
2018-06-19T13:06:36.800Z,23.80
2018-06-19T13:08:21.725Z,23.87
2018-06-19T13:10:06.652Z,23.87
2018-06-19T13:11:51.628Z,23.91
2018-06-19T13:13:36.552Z,23.84
2018-06-19T13:15:21.480Z,23.88
2018-06-19T13:17:06.455Z,23.86
2018-06-19T13:18:51.535Z,23.93
2018-06-19T13:20:36.612Z,23.92
2018-06-19T13:22:21.539Z,23.95
2018-06-19T13:24:06.466Z,23.88
2018-06-19T13:25:51.592Z,23.88
2018-06-19T13:27:36.519Z,23.88
2018-06-19T13:29:21.475Z,23.98
2018-06-19T13:31:06.374Z,23.91
2018-06-19T13:32:51.300Z,23.91
2018-06-19T13:34:36.226Z,23.98
2018-06-19T13:36:21.404Z,23.92
2018-06-19T13:38:06.430Z,23.95
2018-06-19T13:39:51.413Z,23.96
2018-06-19T13:41:36.439Z,23.96
2018-06-19T13:43:21.368Z,23.92
2018-06-19T13:45:06.343Z,23.93
2018-06-19T13:46:51.272Z,23.95
2018-06-19T13:48:36.199Z,23.96
2018-06-19T13:50:21.176Z,23.98
2018-06-19T13:52:06.154Z,23.98
2018-06-19T13:53:51.081Z,23.96
2018-06-19T13:55:36.009Z,23.92
2018-06-19T13:57:21.337Z,23.96
2018-06-19T13:59:06.357Z,23.99
2018-06-19T14:00:51.386Z,24.02
2018-06-19T14:02:36.368Z,24.03
2018-06-19T14:04:21.386Z,23.99
2018-06-19T14:06:06.356Z,24.05
2018-06-19T14:07:51.376Z,24.03
2018-06-19T14:09:36.258Z,24.06
2018-06-19T14:11:21.186Z,24.02
2018-06-19T14:13:06.162Z,24.01
2018-06-19T14:14:51.188Z,24.02
2018-06-19T14:16:36.118Z,24.03
2018-06-19T14:18:21.044Z,24.06
2018-06-19T14:20:05.972Z,24.08
2018-06-19T14:21:50.898Z,24.06
2018-06-19T14:23:35.826Z,24.08
2018-06-19T14:25:20.752Z,24.11
2018-06-19T14:27:05.681Z,24.10
2018-06-19T14:28:50.646Z,24.11
2018-06-19T14:30:35.535Z,24.11
2018-06-19T14:32:20.604Z,24.14
2018-06-19T14:34:05.548Z,24.11
2018-06-19T14:35:50.551Z,24.17
2018-06-19T14:37:35.479Z,24.08
2018-06-19T14:39:20.412Z,24.10
2018-06-19T14:41:05.330Z,24.18
2018-06-19T14:42:50.257Z,24.14
2018-06-19T14:44:35.184Z,24.17
2018-06-19T14:46:25.167Z,24.17
2018-06-19T14:48:10.139Z,24.23
2018-06-19T14:49:55.068Z,24.20
2018-06-19T14:51:39.995Z,24.20
2018-06-19T14:53:24.924Z,24.17
2018-06-19T14:55:09.942Z,24.24
2018-06-19T14:56:54.922Z,24.10
2018-06-19T14:58:39.851Z,24.11
2018-06-19T15:00:24.780Z,24.16
2018-06-19T15:02:09.706Z,24.11
2018-06-19T15:03:54.633Z,24.20
2018-06-19T15:05:39.609Z,24.26
2018-06-19T15:07:24.539Z,24.26
2018-06-19T15:09:09.513Z,24.29
2018-06-19T15:10:54.443Z,24.33
2018-06-19T15:12:39.378Z,24.38
2018-06-19T15:14:24.351Z,24.35
2018-06-19T15:16:09.330Z,24.42
2018-06-19T15:17:54.257Z,24.54
2018-06-19T15:19:39.185Z,24.42
2018-06-19T15:21:24.112Z,24.48
2018-06-19T15:23:09.089Z,24.51
2018-06-19T15:24:54.066Z,24.57
2018-06-19T15:26:39.095Z,24.51
2018-06-19T15:28:24.024Z,24.53
2018-06-19T15:30:08.951Z,24.58
2018-06-19T15:31:53.876Z,24.50
2018-06-19T15:33:38.803Z,24.43
2018-06-19T15:35:23.830Z,24.61
2018-06-19T15:37:08.759Z,24.53
2018-06-19T15:38:53.686Z,24.51
2018-06-19T15:40:38.614Z,24.47
2018-06-19T15:42:23.593Z,24.55
2018-06-19T15:44:08.566Z,24.47
2018-06-19T15:45:53.494Z,24.47
2018-06-19T15:47:38.416Z,24.47
2018-06-19T15:49:23.342Z,24.51
2018-06-19T15:51:08.321Z,24.39
2018-06-19T15:52:53.297Z,24.51
2018-06-19T15:54:38.272Z,24.57
2018-06-19T15:56:23.202Z,24.61
2018-06-19T15:58:08.129Z,24.63
2018-06-19T15:59:53.061Z,24.57
2018-06-19T16:01:38.027Z,24.54
2018-06-19T16:03:23.008Z,24.53
2018-06-19T16:05:07.983Z,24.53
2018-06-19T16:06:52.914Z,24.50
2018-06-19T16:08:37.889Z,24.61
2018-06-19T16:10:22.866Z,24.47
2018-06-19T16:12:07.795Z,24.50
2018-06-19T16:13:52.872Z,24.55
2018-06-19T16:15:37.800Z,24.55
2018-06-19T16:17:22.727Z,24.63
2018-06-19T16:19:07.658Z,24.60
2018-06-19T16:20:52.635Z,24.61
2018-06-19T16:22:37.565Z,24.58
2018-06-19T16:24:22.491Z,24.58
2018-06-19T16:26:07.472Z,24.54
2018-06-19T16:27:52.403Z,24.73
2018-06-19T16:29:37.420Z,24.74
2018-06-19T16:31:22.395Z,24.61
2018-06-19T16:33:07.319Z,24.57
2018-06-19T16:34:52.245Z,24.60
2018-06-19T16:36:37.173Z,24.51
2018-06-19T16:38:22.142Z,24.53
2018-06-19T16:40:07.078Z,24.48
2018-06-19T16:41:52.009Z,24.54
2018-06-19T16:43:37.028Z,24.51
2018-06-19T16:45:21.995Z,24.43
2018-06-19T16:47:06.935Z,24.45
2018-06-19T16:48:51.861Z,24.51
2018-06-19T16:50:36.789Z,24.53
2018-06-19T16:52:21.717Z,24.38
2018-06-19T16:54:06.644Z,24.48
2018-06-19T16:55:51.572Z,24.48
2018-06-19T16:57:36.500Z,24.45
2018-06-19T16:59:21.525Z,24.47
2018-06-19T17:01:06.508Z,24.47
2018-06-19T17:02:51.473Z,24.47
2018-06-19T17:04:36.400Z,24.58
2018-06-19T17:06:21.376Z,24.54
2018-06-19T17:08:06.306Z,24.51
2018-06-19T17:09:51.234Z,24.54
2018-06-19T17:11:36.158Z,24.57
2018-06-19T17:13:21.085Z,24.60
2018-06-19T17:15:06.012Z,24.54
2018-06-19T17:16:50.988Z,24.60
2018-06-19T17:18:35.915Z,24.60
2018-06-19T17:20:20.842Z,24.57
2018-06-19T17:22:05.770Z,24.55
2018-06-19T17:23:50.747Z,24.60
2018-06-19T17:25:35.726Z,24.63
2018-06-19T17:27:20.702Z,24.55
2018-06-19T17:29:05.678Z,24.55
2018-06-19T17:30:50.862Z,24.58
2018-06-19T17:32:35.836Z,24.76
2018-06-19T17:34:20.966Z,24.74
2018-06-19T17:36:05.892Z,24.74
2018-06-19T17:37:50.817Z,24.76
2018-06-19T17:39:35.744Z,24.74
2018-06-19T17:41:20.672Z,24.77
2018-06-19T17:43:05.648Z,24.68
2018-06-19T17:44:50.578Z,24.77
2018-06-19T17:46:35.505Z,24.77
2018-06-19T17:48:20.483Z,24.74
2018-06-19T17:50:05.467Z,24.74
2018-06-19T17:51:50.393Z,24.80
2018-06-19T17:53:35.371Z,24.77
2018-06-19T17:55:20.403Z,24.74
2018-06-19T17:57:05.373Z,24.74
2018-06-19T17:58:50.299Z,24.77
2018-06-19T18:00:35.227Z,24.84
2018-06-19T18:02:20.154Z,24.78
2018-06-19T18:04:05.086Z,24.89
2018-06-19T18:05:50.058Z,24.85
2018-06-19T18:07:35.037Z,24.77
2018-06-19T18:09:20.037Z,24.78
2018-06-19T18:11:04.894Z,24.84
2018-06-19T18:12:49.870Z,24.85
2018-06-19T18:14:34.803Z,24.93
2018-06-19T18:16:19.726Z,24.85
2018-06-19T18:18:04.654Z,24.88
2018-06-19T18:19:49.580Z,24.89
2018-06-19T18:21:34.522Z,24.86
2018-06-19T18:23:19.535Z,24.89
2018-06-19T18:25:04.467Z,24.91
2018-06-19T18:26:49.395Z,24.98
2018-06-19T18:28:34.322Z,24.93
2018-06-19T18:30:19.250Z,25.01
2018-06-19T18:32:04.228Z,25.01
2018-06-19T18:33:49.158Z,25.03
2018-06-19T18:35:34.087Z,25.04
2018-06-19T18:37:19.014Z,25.04
2018-06-19T18:39:03.942Z,25.08
2018-06-19T18:40:48.920Z,25.07
2018-06-19T18:42:33.850Z,25.11
2018-06-19T18:44:18.777Z,25.13
2018-06-19T18:46:03.709Z,25.06
2018-06-19T18:47:48.688Z,25.07
2018-06-19T18:49:33.663Z,25.10
2018-06-19T18:51:18.643Z,25.08
2018-06-19T18:53:03.572Z,25.16
2018-06-19T18:54:48.503Z,25.10
2018-06-19T18:56:33.429Z,25.06
2018-06-19T18:58:18.356Z,25.04
2018-06-19T19:00:03.488Z,24.99
2018-06-19T19:01:48.417Z,25.03
2018-06-19T19:03:33.387Z,25.03
2018-06-19T19:05:18.316Z,25.08
2018-06-19T19:07:03.244Z,25.01
2018-06-19T19:08:48.174Z,25.01
2018-06-19T19:10:33.202Z,25.03
2018-06-19T19:12:18.174Z,25.03
2018-06-19T19:14:03.101Z,24.99
2018-06-19T19:15:48.034Z,24.96
2018-06-19T19:17:33.009Z,25.04
2018-06-19T19:19:17.937Z,24.98
2018-06-19T19:21:02.916Z,25.01
2018-06-19T19:22:47.843Z,24.95
2018-06-19T19:24:32.771Z,24.96
2018-06-19T19:26:17.750Z,24.99
2018-06-19T19:28:02.737Z,24.95
2018-06-19T19:29:47.725Z,24.99
2018-06-19T19:31:32.687Z,24.96
2018-06-19T19:33:17.620Z,24.99
2018-06-19T19:35:02.545Z,24.95
2018-06-19T19:36:47.523Z,24.91
2018-06-19T19:38:32.449Z,24.89
2018-06-19T19:40:17.426Z,24.89
2018-06-19T19:42:02.356Z,24.88
2018-06-19T19:43:47.281Z,24.81
2018-06-19T19:45:32.208Z,24.84
2018-06-19T19:47:17.236Z,24.74
2018-06-19T19:49:02.209Z,24.76
2018-06-19T19:50:47.139Z,24.77
2018-06-19T19:52:32.150Z,24.74
2018-06-19T19:54:17.081Z,24.74
2018-06-19T19:56:02.056Z,24.80
2018-06-19T19:57:46.983Z,24.80
2018-06-19T19:59:31.910Z,24.73
2018-06-19T20:01:16.836Z,24.77
2018-06-19T20:03:01.816Z,24.77
2018-06-19T20:04:46.777Z,24.88
2018-06-19T20:06:31.754Z,24.91
2018-06-19T20:08:16.684Z,24.89
2018-06-19T20:10:01.614Z,24.88
2018-06-19T20:11:46.607Z,24.89
2018-06-19T20:13:31.547Z,24.91
2018-06-19T20:15:16.475Z,24.86
2018-06-19T20:17:01.416Z,24.89
2018-06-19T20:18:46.326Z,24.81
2018-06-19T20:20:31.351Z,24.80
2018-06-19T20:22:16.278Z,24.80
2018-06-19T20:24:01.206Z,24.78
2018-06-19T20:25:46.171Z,24.80
2018-06-19T20:27:31.098Z,24.88
2018-06-19T20:29:16.137Z,24.85
2018-06-19T20:31:01.047Z,24.76
2018-06-19T20:32:45.975Z,24.78
2018-06-19T20:34:30.902Z,24.74
2018-06-19T20:36:15.877Z,24.76
2018-06-19T20:38:00.807Z,24.84
2018-06-19T20:39:45.774Z,24.77
2018-06-19T20:41:30.752Z,24.70
2018-06-19T20:43:15.728Z,24.70
2018-06-19T20:45:00.657Z,24.68
2018-06-19T20:46:45.584Z,24.74
2018-06-19T20:48:30.614Z,24.69
2018-06-19T20:50:15.540Z,24.66
2018-06-19T20:52:00.464Z,24.68
2018-06-19T20:53:45.388Z,24.68
2018-06-19T20:55:30.313Z,24.74
2018-06-19T20:57:15.239Z,24.69
2018-06-19T20:59:00.264Z,24.74
2018-06-19T21:00:45.193Z,24.66
2018-06-19T21:02:30.119Z,24.68
2018-06-19T21:04:15.045Z,24.60
2018-06-19T21:05:59.970Z,24.65
2018-06-19T21:08:29.008Z,24.74
2018-06-19T21:10:13.983Z,24.60
2018-06-19T21:11:58.908Z,24.63
2018-06-19T21:13:43.863Z,24.57
2018-06-19T21:15:28.758Z,24.61
2018-06-19T21:17:13.683Z,24.55
2018-06-19T21:20:54.958Z,24.57
2018-06-19T21:22:39.934Z,24.58
2018-06-19T21:24:24.916Z,24.60
2018-06-19T21:26:09.833Z,24.57
2018-06-19T21:27:54.814Z,24.57
2018-06-19T21:29:39.745Z,24.61
2018-06-19T21:31:24.711Z,24.60
2018-06-19T21:33:09.640Z,24.61
2018-06-19T21:34:54.563Z,24.61
2018-06-19T21:36:39.489Z,24.57
2018-06-19T21:38:24.414Z,24.61
2018-06-19T21:40:09.342Z,24.50
2018-06-19T21:41:54.315Z,24.55
2018-06-19T21:43:39.332Z,24.55
2018-06-19T21:45:24.310Z,24.50
2018-06-19T21:47:09.237Z,24.50
2018-06-19T21:48:54.161Z,24.47
2018-06-19T21:50:39.136Z,24.48
2018-06-19T21:52:24.151Z,24.55
2018-06-19T21:54:09.125Z,24.45
2018-06-19T21:55:54.053Z,24.57
2018-06-19T21:57:38.979Z,24.53
2018-06-19T21:59:23.954Z,24.45
2018-06-19T22:01:08.880Z,24.42
2018-06-19T22:02:53.854Z,24.51
2018-06-19T22:04:38.839Z,24.48
2018-06-19T22:06:23.801Z,24.40
2018-06-19T22:08:08.774Z,24.51
2018-06-19T22:09:53.702Z,24.51
2018-06-19T22:11:38.627Z,24.45
2018-06-19T22:13:23.553Z,24.53
2018-06-19T22:15:08.526Z,24.51
2018-06-19T22:16:53.451Z,24.50
2018-06-19T22:18:38.428Z,24.50
2018-06-19T22:20:23.503Z,24.43
2018-06-19T22:22:08.433Z,24.45
2018-06-19T22:23:53.353Z,24.51
2018-06-19T22:25:38.327Z,24.43
2018-06-19T22:27:23.253Z,24.42
2018-06-19T22:29:08.179Z,24.38
2018-06-19T22:30:53.108Z,24.40
2018-06-19T22:32:38.036Z,24.42
2018-06-19T22:34:23.004Z,24.40
2018-06-19T22:36:08.020Z,24.42
2018-06-19T22:37:53.049Z,24.39
2018-06-19T22:39:37.977Z,24.43
2018-06-19T22:41:22.945Z,24.39
2018-06-19T22:43:07.912Z,24.42
2018-06-19T22:44:52.886Z,24.38
2018-06-19T22:46:37.814Z,24.32
2018-06-19T22:48:22.739Z,24.35
2018-06-19T22:50:07.665Z,24.40
2018-06-19T22:51:52.590Z,24.38
2018-06-19T22:53:37.573Z,24.35
2018-06-19T22:55:22.501Z,24.40